sensor_id;sensor_type;location;lat;lon;timestamp;pressure;altitude;pressure_sealevel;temperature;humidity
14242;BME280;7205;50.864;12.766;2022-12-10T00:01:39;96560.69;;;3.51;79.09
14242;BME280;7205;50.864;12.766;2022-12-10T00:04:06;96562.63;;;3.49;79.06
14242;BME280;7205;50.864;12.766;2022-12-10T00:06:35;96559.34;;;3.47;79.00
14242;BME280;7205;50.864;12.766;2022-12-10T00:09:05;96552.81;;;3.43;78.44
14242;BME280;7205;50.864;12.766;2022-12-10T00:11:32;96560.34;;;3.46;79.15
14242;BME280;7205;50.864;12.766;2022-12-10T00:13:59;96561.97;;;3.47;78.66
14242;BME280;7205;50.864;12.766;2022-12-10T00:16:27;96565.25;;;3.49;78.40
14242;BME280;7205;50.864;12.766;2022-12-10T00:18:56;96565.09;;;3.51;79.22
14242;BME280;7205;50.864;12.766;2022-12-10T00:21:25;96570.13;;;3.52;78.53
14242;BME280;7205;50.864;12.766;2022-12-10T00:23:54;96570.97;;;3.53;78.67
14242;BME280;7205;50.864;12.766;2022-12-10T00:26:23;96569.97;;;3.54;79.43
14242;BME280;7205;50.864;12.766;2022-12-10T00:28:51;96574.25;;;3.55;78.55
14242;BME280;7205;50.864;12.766;2022-12-10T00:31:20;96576.69;;;3.56;78.63
14242;BME280;7205;50.864;12.766;2022-12-10T00:33:48;96578.00;;;3.60;79.15
14242;BME280;7205;50.864;12.766;2022-12-10T00:36:19;96580.16;;;3.65;79.71
14242;BME280;7205;50.864;12.766;2022-12-10T00:38:46;96570.19;;;3.68;79.03
14242;BME280;7205;50.864;12.766;2022-12-10T00:41:15;96567.28;;;3.71;78.80
14242;BME280;7205;50.864;12.766;2022-12-10T00:43:43;96567.44;;;3.70;79.13
14242;BME280;7205;50.864;12.766;2022-12-10T00:46:11;96574.59;;;3.68;78.76
14242;BME280;7205;50.864;12.766;2022-12-10T00:48:39;96572.31;;;3.65;79.18
14242;BME280;7205;50.864;12.766;2022-12-10T00:51:11;96572.94;;;3.67;78.90
14242;BME280;7205;50.864;12.766;2022-12-10T00:53:39;96571.31;;;3.66;78.98
14242;BME280;7205;50.864;12.766;2022-12-10T00:56:07;96566.44;;;3.63;78.85
14242;BME280;7205;50.864;12.766;2022-12-10T00:58:37;96568.38;;;3.61;78.63
14242;BME280;7205;50.864;12.766;2022-12-10T01:01:09;96572.78;;;3.60;79.00
14242;BME280;7205;50.864;12.766;2022-12-10T01:03:37;96578.47;;;3.56;78.24
14242;BME280;7205;50.864;12.766;2022-12-10T01:06:09;96578.94;;;3.51;77.65
14242;BME280;7205;50.864;12.766;2022-12-10T01:08:36;96577.47;;;3.49;78.04
14242;BME280;7205;50.864;12.766;2022-12-10T01:11:03;96575.00;;;3.47;78.86
14242;BME280;7205;50.864;12.766;2022-12-10T01:13:30;96581.84;;;3.48;78.25
14242;BME280;7205;50.864;12.766;2022-12-10T01:15:59;96585.44;;;3.47;78.89
14242;BME280;7205;50.864;12.766;2022-12-10T01:18:26;96584.13;;;3.43;78.20
14242;BME280;7205;50.864;12.766;2022-12-10T01:20:53;96581.66;;;3.42;78.83
14242;BME280;7205;50.864;12.766;2022-12-10T01:23:20;96584.13;;;3.43;79.04
14242;BME280;7205;50.864;12.766;2022-12-10T01:25:47;96586.72;;;3.43;78.59
14242;BME280;7205;50.864;12.766;2022-12-10T01:28:14;96588.53;;;3.43;79.53
14242;BME280;7205;50.864;12.766;2022-12-10T01:30:41;96589.50;;;3.42;79.13
14242;BME280;7205;50.864;12.766;2022-12-10T01:33:10;96592.41;;;3.39;79.30
14242;BME280;7205;50.864;12.766;2022-12-10T01:35:37;96592.75;;;3.36;79.15
14242;BME280;7205;50.864;12.766;2022-12-10T01:38:03;96586.19;;;3.32;79.32
14242;BME280;7205;50.864;12.766;2022-12-10T01:40:30;96594.34;;;3.29;79.67
14242;BME280;7205;50.864;12.766;2022-12-10T01:42:57;96590.09;;;3.28;79.17
14242;BME280;7205;50.864;12.766;2022-12-10T01:45:28;96590.25;;;3.26;79.57
14242;BME280;7205;50.864;12.766;2022-12-10T01:47:54;96597.56;;;3.23;80.07
14242;BME280;7205;50.864;12.766;2022-12-10T01:50:23;96590.50;;;3.15;79.45
14242;BME280;7205;50.864;12.766;2022-12-10T01:52:50;96598.31;;;3.07;80.16
14242;BME280;7205;50.864;12.766;2022-12-10T01:55:39;96592.38;;;2.97;79.96
14242;BME280;7205;50.864;12.766;2022-12-10T01:58:06;96593.00;;;2.91;80.81
14242;BME280;7205;50.864;12.766;2022-12-10T02:00:37;96598.50;;;2.88;80.51
14242;BME280;7205;50.864;12.766;2022-12-10T02:03:13;96601.25;;;2.87;80.82
14242;BME280;7205;50.864;12.766;2022-12-10T02:05:44;96595.53;;;2.83;81.02
14242;BME280;7205;50.864;12.766;2022-12-10T02:08:21;96600.91;;;2.82;81.85
14242;BME280;7205;50.864;12.766;2022-12-10T02:10:58;96604.34;;;2.82;82.48
14242;BME280;7205;50.864;12.766;2022-12-10T02:13:30;96602.56;;;2.83;82.39
14242;BME280;7205;50.864;12.766;2022-12-10T02:16:04;96607.56;;;2.76;81.90
14242;BME280;7205;50.864;12.766;2022-12-10T02:18:36;96600.19;;;2.72;82.24
14242;BME280;7205;50.864;12.766;2022-12-10T02:21:10;96599.19;;;2.65;82.08
14242;BME280;7205;50.864;12.766;2022-12-10T02:23:41;96600.28;;;2.62;82.11
14242;BME280;7205;50.864;12.766;2022-12-10T02:26:14;96604.97;;;2.58;82.52
14242;BME280;7205;50.864;12.766;2022-12-10T02:28:48;96600.25;;;2.54;83.30
14242;BME280;7205;50.864;12.766;2022-12-10T02:31:22;96601.66;;;2.48;82.96
14242;BME280;7205;50.864;12.766;2022-12-10T02:33:53;96606.34;;;2.45;83.07
14242;BME280;7205;50.864;12.766;2022-12-10T02:36:23;96610.59;;;2.46;83.63
14242;BME280;7205;50.864;12.766;2022-12-10T02:38:52;96609.63;;;2.47;83.96
14242;BME280;7205;50.864;12.766;2022-12-10T02:41:28;96605.88;;;2.49;84.32
14242;BME280;7205;50.864;12.766;2022-12-10T02:43:59;96612.44;;;2.53;84.96
14242;BME280;7205;50.864;12.766;2022-12-10T02:46:29;96608.72;;;2.56;84.74
14242;BME280;7205;50.864;12.766;2022-12-10T02:49:04;96607.75;;;2.57;84.53
14242;BME280;7205;50.864;12.766;2022-12-10T02:51:34;96609.25;;;2.60;85.00
14242;BME280;7205;50.864;12.766;2022-12-10T02:54:02;96609.88;;;2.62;84.88
14242;BME280;7205;50.864;12.766;2022-12-10T02:56:34;96604.53;;;2.63;84.97
14242;BME280;7205;50.864;12.766;2022-12-10T02:59:11;96607.94;;;2.64;85.81
14242;BME280;7205;50.864;12.766;2022-12-10T03:01:49;96617.13;;;2.68;85.53
14242;BME280;7205;50.864;12.766;2022-12-10T03:04:25;96612.22;;;2.65;85.96
14242;BME280;7205;50.864;12.766;2022-12-10T03:06:59;96619.34;;;2.63;85.08
14242;BME280;7205;50.864;12.766;2022-12-10T03:09:31;96618.53;;;2.62;85.37
14242;BME280;7205;50.864;12.766;2022-12-10T03:12:08;96627.00;;;2.64;86.20
14242;BME280;7205;50.864;12.766;2022-12-10T03:14:40;96632.91;;;2.66;85.63
14242;BME280;7205;50.864;12.766;2022-12-10T03:17:08;96625.72;;;2.68;86.70
14242;BME280;7205;50.864;12.766;2022-12-10T03:19:37;96624.09;;;2.67;85.77
14242;BME280;7205;50.864;12.766;2022-12-10T03:22:07;96627.22;;;2.71;86.50
14242;BME280;7205;50.864;12.766;2022-12-10T03:24:35;96633.09;;;2.73;86.11
14242;BME280;7205;50.864;12.766;2022-12-10T03:27:04;96620.09;;;2.73;86.27
14242;BME280;7205;50.864;12.766;2022-12-10T03:29:35;96625.44;;;2.71;86.73
14242;BME280;7205;50.864;12.766;2022-12-10T03:32:04;96624.47;;;2.72;86.46
14242;BME280;7205;50.864;12.766;2022-12-10T03:34:33;96620.50;;;2.68;86.34
14242;BME280;7205;50.864;12.766;2022-12-10T03:37:01;96622.31;;;2.68;85.77
14242;BME280;7205;50.864;12.766;2022-12-10T03:39:28;96611.06;;;2.67;86.46
14242;BME280;7205;50.864;12.766;2022-12-10T03:41:55;96612.84;;;2.67;85.71
14242;BME280;7205;50.864;12.766;2022-12-10T03:44:29;96614.34;;;2.69;86.48
14242;BME280;7205;50.864;12.766;2022-12-10T03:46:57;96605.41;;;2.72;86.53
14242;BME280;7205;50.864;12.766;2022-12-10T03:49:24;96608.69;;;2.74;86.46
14242;BME280;7205;50.864;12.766;2022-12-10T03:51:52;96606.75;;;2.76;87.07
14242;BME280;7205;50.864;12.766;2022-12-10T03:54:19;96607.25;;;2.79;87.19
14242;BME280;7205;50.864;12.766;2022-12-10T03:56:46;96618.34;;;2.81;86.79
14242;BME280;7205;50.864;12.766;2022-12-10T03:59:13;96613.66;;;2.85;87.06
14242;BME280;7205;50.864;12.766;2022-12-10T04:01:40;96616.09;;;2.86;86.95
14242;BME280;7205;50.864;12.766;2022-12-10T04:04:07;96616.09;;;2.86;86.22
14242;BME280;7205;50.864;12.766;2022-12-10T04:06:37;96615.13;;;2.87;87.22
14242;BME280;7205;50.864;12.766;2022-12-10T04:09:05;96609.75;;;2.89;86.32
14242;BME280;7205;50.864;12.766;2022-12-10T04:11:32;96619.06;;;2.91;86.77
14242;BME280;7205;50.864;12.766;2022-12-10T04:13:59;96617.94;;;2.94;87.58
14242;BME280;7205;50.864;12.766;2022-12-10T04:16:43;96618.25;;;2.91;86.62
14242;BME280;7205;50.864;12.766;2022-12-10T04:19:11;96615.94;;;2.88;86.64
14242;BME280;7205;50.864;12.766;2022-12-10T04:21:40;96624.88;;;2.85;86.03
14242;BME280;7205;50.864;12.766;2022-12-10T04:24:29;96619.00;;;2.83;85.87
14242;BME280;7205;50.864;12.766;2022-12-10T04:27:17;96624.72;;;2.87;86.17
14242;BME280;7205;50.864;12.766;2022-12-10T04:29:45;96617.88;;;2.86;86.39
14242;BME280;7205;50.864;12.766;2022-12-10T04:32:11;96620.13;;;2.81;86.18
14242;BME280;7205;50.864;12.766;2022-12-10T04:34:38;96614.56;;;2.76;86.30
14242;BME280;7205;50.864;12.766;2022-12-10T04:37:05;96621.53;;;2.75;85.54
14242;BME280;7205;50.864;12.766;2022-12-10T04:39:33;96611.28;;;2.74;86.28
14242;BME280;7205;50.864;12.766;2022-12-10T04:42:01;96613.22;;;2.72;86.07
14242;BME280;7205;50.864;12.766;2022-12-10T04:44:28;96613.88;;;2.74;85.93
14242;BME280;7205;50.864;12.766;2022-12-10T04:46:54;96604.97;;;2.76;86.52
14242;BME280;7205;50.864;12.766;2022-12-10T04:49:21;96603.66;;;2.80;86.21
14242;BME280;7205;50.864;12.766;2022-12-10T04:51:49;96607.94;;;2.81;86.09
14242;BME280;7205;50.864;12.766;2022-12-10T04:54:16;96604.34;;;2.82;86.19
14242;BME280;7205;50.864;12.766;2022-12-10T04:56:45;96608.56;;;2.83;86.85
14242;BME280;7205;50.864;12.766;2022-12-10T04:59:12;96605.16;;;2.83;86.79
14242;BME280;7205;50.864;12.766;2022-12-10T05:01:39;96613.13;;;2.81;86.48
14242;BME280;7205;50.864;12.766;2022-12-10T05:04:07;96604.50;;;2.81;86.86
14242;BME280;7205;50.864;12.766;2022-12-10T05:06:36;96609.56;;;2.82;86.74
14242;BME280;7205;50.864;12.766;2022-12-10T05:09:03;96606.13;;;2.82;85.80
14242;BME280;7205;50.864;12.766;2022-12-10T05:11:32;96608.56;;;2.83;85.83
14242;BME280;7205;50.864;12.766;2022-12-10T05:14:00;96603.72;;;2.88;86.81
14242;BME280;7205;50.864;12.766;2022-12-10T05:16:29;96607.97;;;2.89;86.64
14242;BME280;7205;50.864;12.766;2022-12-10T05:18:57;96600.66;;;2.93;87.11
14242;BME280;7205;50.864;12.766;2022-12-10T05:21:26;96607.19;;;2.97;87.07
14242;BME280;7205;50.864;12.766;2022-12-10T05:24:14;96605.78;;;3.02;86.93
14242;BME280;7205;50.864;12.766;2022-12-10T05:26:41;96608.56;;;3.09;87.33
14242;BME280;7205;50.864;12.766;2022-12-10T05:29:10;96603.19;;;3.10;86.37
14242;BME280;7205;50.864;12.766;2022-12-10T05:31:38;96614.31;;;3.12;86.89
14242;BME280;7205;50.864;12.766;2022-12-10T05:34:05;96610.44;;;3.16;86.58
14242;BME280;7205;50.864;12.766;2022-12-10T05:36:33;96606.66;;;3.19;86.14
14242;BME280;7205;50.864;12.766;2022-12-10T05:39:00;96615.31;;;3.19;86.55
14242;BME280;7205;50.864;12.766;2022-12-10T05:41:29;96612.56;;;3.21;86.24
14242;BME280;7205;50.864;12.766;2022-12-10T05:43:57;96616.44;;;3.17;85.66
14242;BME280;7205;50.864;12.766;2022-12-10T05:46:28;96619.34;;;3.14;85.07
14242;BME280;7205;50.864;12.766;2022-12-10T05:48:55;96622.13;;;3.12;85.71
14242;BME280;7205;50.864;12.766;2022-12-10T05:51:24;96620.50;;;3.11;84.75
14242;BME280;7205;50.864;12.766;2022-12-10T05:53:52;96627.81;;;3.08;84.95
14242;BME280;7205;50.864;12.766;2022-12-10T05:56:20;96628.25;;;3.03;84.94
14242;BME280;7205;50.864;12.766;2022-12-10T05:58:49;96632.97;;;3.00;84.75
14242;BME280;7205;50.864;12.766;2022-12-10T06:01:18;96630.66;;;2.97;84.95
14242;BME280;7205;50.864;12.766;2022-12-10T06:03:47;96632.97;;;3.00;84.89
14242;BME280;7205;50.864;12.766;2022-12-10T06:06:20;96637.88;;;3.03;84.95
14242;BME280;7205;50.864;12.766;2022-12-10T06:08:48;96635.13;;;3.04;84.61
14242;BME280;7205;50.864;12.766;2022-12-10T06:11:15;96633.69;;;3.10;85.32
14242;BME280;7205;50.864;12.766;2022-12-10T06:13:42;96642.50;;;3.17;84.93
14242;BME280;7205;50.864;12.766;2022-12-10T06:16:11;96637.50;;;3.23;85.13
14242;BME280;7205;50.864;12.766;2022-12-10T06:18:38;96633.78;;;3.26;85.07
14242;BME280;7205;50.864;12.766;2022-12-10T06:21:08;96640.31;;;3.30;85.44
14242;BME280;7205;50.864;12.766;2022-12-10T06:23:35;96634.78;;;3.33;84.89
14242;BME280;7205;50.864;12.766;2022-12-10T06:26:03;96644.25;;;3.34;85.29
14242;BME280;7205;50.864;12.766;2022-12-10T06:28:30;96646.69;;;3.35;84.44
14242;BME280;7205;50.864;12.766;2022-12-10T06:30:57;96642.78;;;3.31;84.28
14242;BME280;7205;50.864;12.766;2022-12-10T06:33:25;96647.31;;;3.29;84.11
14242;BME280;7205;50.864;12.766;2022-12-10T06:35:52;96649.94;;;3.29;84.73
14242;BME280;7205;50.864;12.766;2022-12-10T06:38:20;96651.72;;;3.29;84.86
14242;BME280;7205;50.864;12.766;2022-12-10T06:40:47;96658.72;;;3.28;84.02
14242;BME280;7205;50.864;12.766;2022-12-10T06:43:14;96661.19;;;3.30;84.42
14242;BME280;7205;50.864;12.766;2022-12-10T06:45:41;96661.19;;;3.30;83.90
14242;BME280;7205;50.864;12.766;2022-12-10T06:48:08;96665.91;;;3.26;84.16
14242;BME280;7205;50.864;12.766;2022-12-10T06:50:35;96665.38;;;3.23;83.68
14242;BME280;7205;50.864;12.766;2022-12-10T06:53:02;96664.88;;;3.19;83.32
14242;BME280;7205;50.864;12.766;2022-12-10T06:55:30;96656.03;;;3.12;83.56
14242;BME280;7205;50.864;12.766;2022-12-10T06:57:57;96670.19;;;3.10;83.77
14242;BME280;7205;50.864;12.766;2022-12-10T07:00:24;96669.38;;;3.09;83.63
14242;BME280;7205;50.864;12.766;2022-12-10T07:02:51;96670.47;;;3.07;82.98
14242;BME280;7205;50.864;12.766;2022-12-10T07:05:17;96672.88;;;3.00;82.61
14242;BME280;7205;50.864;12.766;2022-12-10T07:07:44;96679.38;;;2.96;83.52
14242;BME280;7205;50.864;12.766;2022-12-10T07:10:13;96676.56;;;2.90;83.41
14242;BME280;7205;50.864;12.766;2022-12-10T07:12:41;96675.38;;;2.84;83.31
14242;BME280;7205;50.864;12.766;2022-12-10T07:15:08;96677.25;;;2.74;83.35
14242;BME280;7205;50.864;12.766;2022-12-10T07:17:35;96677.25;;;2.74;83.50
14242;BME280;7205;50.864;12.766;2022-12-10T07:20:03;96674.81;;;2.73;83.54
14242;BME280;7205;50.864;12.766;2022-12-10T07:22:29;96687.00;;;2.72;83.87
14242;BME280;7205;50.864;12.766;2022-12-10T07:24:56;96683.56;;;2.72;83.90
14242;BME280;7205;50.864;12.766;2022-12-10T07:27:23;96679.94;;;2.65;83.58
14242;BME280;7205;50.864;12.766;2022-12-10T07:29:51;96685.97;;;2.65;83.00
14242;BME280;7205;50.864;12.766;2022-12-10T07:32:18;96686.94;;;2.64;83.82
14242;BME280;7205;50.864;12.766;2022-12-10T07:34:45;96691.84;;;2.67;83.45
14242;BME280;7205;50.864;12.766;2022-12-10T07:37:12;96689.09;;;2.69;84.11
14242;BME280;7205;50.864;12.766;2022-12-10T07:39:38;96681.41;;;2.67;83.75
14242;BME280;7205;50.864;12.766;2022-12-10T07:42:08;96697.22;;;2.66;83.95
14242;BME280;7205;50.864;12.766;2022-12-10T07:44:37;96697.66;;;2.61;84.21
14242;BME280;7205;50.864;12.766;2022-12-10T07:47:08;96699.44;;;2.61;84.15
14242;BME280;7205;50.864;12.766;2022-12-10T07:49:35;96692.22;;;2.54;84.06
14242;BME280;7205;50.864;12.766;2022-12-10T07:52:04;96700.44;;;2.60;84.21
14242;BME280;7205;50.864;12.766;2022-12-10T07:54:35;96699.75;;;2.58;84.37
14242;BME280;7205;50.864;12.766;2022-12-10T07:57:02;96700.44;;;2.60;84.29
14242;BME280;7205;50.864;12.766;2022-12-10T07:59:29;96699.97;;;2.64;85.18
14242;BME280;7205;50.864;12.766;2022-12-10T08:01:56;96689.25;;;2.67;85.60
14242;BME280;7205;50.864;12.766;2022-12-10T08:04:27;96703.00;;;2.77;84.87
14242;BME280;7205;50.864;12.766;2022-12-10T08:06:55;96704.34;;;2.81;85.54
14242;BME280;7205;50.864;12.766;2022-12-10T08:09:22;96706.13;;;2.81;84.41
14242;BME280;7205;50.864;12.766;2022-12-10T08:11:49;96711.19;;;2.82;85.49
14242;BME280;7205;50.864;12.766;2022-12-10T08:14:15;96699.16;;;2.81;84.21
14242;BME280;7205;50.864;12.766;2022-12-10T08:16:42;96705.47;;;2.79;84.50
14242;BME280;7205;50.864;12.766;2022-12-10T08:19:09;96702.31;;;2.75;84.49
14242;BME280;7205;50.864;12.766;2022-12-10T08:21:37;96703.00;;;2.77;84.67
14242;BME280;7205;50.864;12.766;2022-12-10T08:24:04;96708.06;;;2.79;85.16
14242;BME280;7205;50.864;12.766;2022-12-10T08:26:32;96706.97;;;2.81;85.02
14242;BME280;7205;50.864;12.766;2022-12-10T08:29:00;96699.78;;;2.83;84.94
14242;BME280;7205;50.864;12.766;2022-12-10T08:31:27;96704.03;;;2.84;84.86
14242;BME280;7205;50.864;12.766;2022-12-10T08:33:54;96706.66;;;2.84;84.95
14242;BME280;7205;50.864;12.766;2022-12-10T08:36:21;96708.06;;;2.79;84.91
14242;BME280;7205;50.864;12.766;2022-12-10T08:38:49;96709.47;;;2.73;84.23
14242;BME280;7205;50.864;12.766;2022-12-10T08:41:18;96715.13;;;2.69;84.21
14242;BME280;7205;50.864;12.766;2022-12-10T08:43:46;96718.56;;;2.69;84.48
14242;BME280;7205;50.864;12.766;2022-12-10T08:46:13;96718.72;;;2.68;84.20
14242;BME280;7205;50.864;12.766;2022-12-10T08:48:41;96713.50;;;2.68;84.51
14242;BME280;7205;50.864;12.766;2022-12-10T08:51:13;96728.84;;;2.71;84.25
14242;BME280;7205;50.864;12.766;2022-12-10T08:53:41;96728.31;;;2.67;84.21
14242;BME280;7205;50.864;12.766;2022-12-10T08:56:12;96724.38;;;2.63;84.19
14242;BME280;7205;50.864;12.766;2022-12-10T08:58:46;96723.03;;;2.59;84.06
14242;BME280;7205;50.864;12.766;2022-12-10T09:01:16;96730.19;;;2.57;84.13
14242;BME280;7205;50.864;12.766;2022-12-10T09:03:44;96733.09;;;2.54;84.23
14242;BME280;7205;50.864;12.766;2022-12-10T09:06:13;96736.00;;;2.51;83.89
14242;BME280;7205;50.864;12.766;2022-12-10T09:08:40;96741.31;;;2.49;84.46
14242;BME280;7205;50.864;12.766;2022-12-10T09:11:08;96732.72;;;2.49;84.53
14242;BME280;7205;50.864;12.766;2022-12-10T09:17:37;96744.31;;;2.54;84.26
14242;BME280;7205;50.864;12.766;2022-12-10T09:20:17;96745.28;;;2.53;84.20
14242;BME280;7205;50.864;12.766;2022-12-10T09:22:55;96736.50;;;2.54;84.02
14242;BME280;7205;50.864;12.766;2022-12-10T09:25:22;96739.09;;;2.54;84.04
14242;BME280;7205;50.864;12.766;2022-12-10T09:27:50;96729.66;;;2.53;84.01
14242;BME280;7205;50.864;12.766;2022-12-10T09:30:27;96744.72;;;2.60;84.54
14242;BME280;7205;50.864;12.766;2022-12-10T09:33:01;96745.50;;;2.60;84.04
14242;BME280;7205;50.864;12.766;2022-12-10T09:35:41;96742.09;;;2.60;83.61
14242;BME280;7205;50.864;12.766;2022-12-10T09:38:12;96732.78;;;2.57;83.85
14242;BME280;7205;50.864;12.766;2022-12-10T09:40:45;96732.34;;;2.62;83.62
14242;BME280;7205;50.864;12.766;2022-12-10T09:43:43;96730.94;;;2.67;84.22
14242;BME280;7205;50.864;12.766;2022-12-10T09:46:18;96743.72;;;2.78;84.54
14242;BME280;7205;50.864;12.766;2022-12-10T09:48:58;96736.72;;;2.79;84.39
14242;BME280;7205;50.864;12.766;2022-12-10T09:51:30;96746.41;;;2.86;83.55
14242;BME280;7205;50.864;12.766;2022-12-10T09:53:59;96741.56;;;2.91;84.20
14242;BME280;7205;50.864;12.766;2022-12-10T09:56:30;96736.88;;;2.95;83.34
14242;BME280;7205;50.864;12.766;2022-12-10T09:59:17;96730.84;;;2.94;83.71
14242;BME280;7205;50.864;12.766;2022-12-10T10:01:56;96728.25;;;2.94;83.64
14242;BME280;7205;50.864;12.766;2022-12-10T10:04:28;96727.47;;;3.02;83.52
14242;BME280;7205;50.864;12.766;2022-12-10T10:06:55;96732.25;;;3.06;83.56
14242;BME280;7205;50.864;12.766;2022-12-10T10:09:22;96734.41;;;3.11;82.98
14242;BME280;7205;50.864;12.766;2022-12-10T10:11:50;96729.69;;;3.14;83.61
14242;BME280;7205;50.864;12.766;2022-12-10T10:14:28;96721.19;;;3.12;82.24
14242;BME280;7205;50.864;12.766;2022-12-10T10:17:16;96716.41;;;3.00;82.12
14242;BME280;7205;50.864;12.766;2022-12-10T10:19:53;96723.84;;;2.95;81.53
14242;BME280;7205;50.864;12.766;2022-12-10T10:22:36;96733.44;;;2.94;81.67
14242;BME280;7205;50.864;12.766;2022-12-10T10:25:33;96726.81;;;2.82;80.93
14242;BME280;7205;50.864;12.766;2022-12-10T10:28:16;96730.31;;;2.73;81.09
14242;BME280;7205;50.864;12.766;2022-12-10T10:30:46;96722.81;;;2.70;80.82
14242;BME280;7205;50.864;12.766;2022-12-10T10:33:22;96730.25;;;2.65;80.88
14242;BME280;7205;50.864;12.766;2022-12-10T10:36:00;96719.75;;;2.57;80.79
14242;BME280;7205;50.864;12.766;2022-12-10T10:38:37;96731.97;;;2.56;81.07
14242;BME280;7205;50.864;12.766;2022-12-10T10:41:22;96717.97;;;2.58;81.34
14242;BME280;7205;50.864;12.766;2022-12-10T10:43:59;96707.03;;;2.54;81.04
14242;BME280;7205;50.864;12.766;2022-12-10T10:46:34;96718.50;;;2.61;81.48
14242;BME280;7205;50.864;12.766;2022-12-10T10:49:22;96713.81;;;2.65;81.48
14242;BME280;7205;50.864;12.766;2022-12-10T10:52:32;96721.41;;;2.76;82.11
14242;BME280;7205;50.864;12.766;2022-12-10T10:55:33;96728.97;;;2.87;81.67
14242;BME280;7205;50.864;12.766;2022-12-10T10:58:25;96716.94;;;2.86;82.04
14242;BME280;7205;50.864;12.766;2022-12-10T11:01:06;96719.06;;;2.90;81.22
14242;BME280;7205;50.864;12.766;2022-12-10T11:03:35;96718.28;;;2.90;81.40
14242;BME280;7205;50.864;12.766;2022-12-10T11:06:06;96724.44;;;2.89;80.44
14242;BME280;7205;50.864;12.766;2022-12-10T11:08:37;96717.75;;;2.86;80.25
14242;BME280;7205;50.864;12.766;2022-12-10T11:11:09;96717.59;;;2.88;80.45
14242;BME280;7205;50.864;12.766;2022-12-10T11:13:38;96722.50;;;2.91;80.89
14242;BME280;7205;50.864;12.766;2022-12-10T11:16:11;96716.78;;;2.87;79.70
14242;BME280;7205;50.864;12.766;2022-12-10T11:18:40;96718.03;;;2.83;79.95
14242;BME280;7205;50.864;12.766;2022-12-10T11:21:17;96712.16;;;2.81;80.35
14242;BME280;7205;50.864;12.766;2022-12-10T11:23:47;96712.81;;;2.83;79.64
14242;BME280;7205;50.864;12.766;2022-12-10T11:26:27;96721.16;;;2.87;80.10
14242;BME280;7205;50.864;12.766;2022-12-10T11:29:05;96727.03;;;2.89;79.77
14242;BME280;7205;50.864;12.766;2022-12-10T11:31:43;96730.47;;;2.89;80.04
14242;BME280;7205;50.864;12.766;2022-12-10T11:34:17;96729.97;;;2.86;79.21
14242;BME280;7205;50.864;12.766;2022-12-10T11:36:54;96732.34;;;2.79;78.89
14242;BME280;7205;50.864;12.766;2022-12-10T11:39:49;96732.66;;;2.76;79.69
14242;BME280;7205;50.864;12.766;2022-12-10T11:42:25;96730.63;;;2.70;79.06
14242;BME280;7205;50.864;12.766;2022-12-10T11:45:02;96734.66;;;2.65;78.82
14242;BME280;7205;50.864;12.766;2022-12-10T11:47:41;96721.53;;;2.56;79.19
14242;BME280;7205;50.864;12.766;2022-12-10T11:50:20;96722.97;;;2.51;79.14
14242;BME280;7205;50.864;12.766;2022-12-10T11:53:01;96717.47;;;2.54;79.47
14242;BME280;7205;50.864;12.766;2022-12-10T11:55:37;96721.69;;;2.55;79.63
14242;BME280;7205;50.864;12.766;2022-12-10T11:58:29;96727.78;;;2.64;80.13
14242;BME280;7205;50.864;12.766;2022-12-10T12:01:09;96730.03;;;2.76;80.34
14242;BME280;7205;50.864;12.766;2022-12-10T12:03:58;96726.22;;;2.88;80.85
14242;BME280;7205;50.864;12.766;2022-12-10T12:06:47;96721.53;;;2.92;80.25
14242;BME280;7205;50.864;12.766;2022-12-10T12:09:27;96724.13;;;2.92;79.92
14242;BME280;7205;50.864;12.766;2022-12-10T12:12:10;96728.59;;;2.99;80.03
14242;BME280;7205;50.864;12.766;2022-12-10T12:15:15;96733.00;;;2.99;79.12
14242;BME280;7205;50.864;12.766;2022-12-10T12:17:47;96726.38;;;2.87;78.69
14242;BME280;7205;50.864;12.766;2022-12-10T12:20:20;96730.84;;;2.77;78.17
14242;BME280;7205;50.864;12.766;2022-12-10T12:22:51;96737.28;;;2.65;77.85
14242;BME280;7205;50.864;12.766;2022-12-10T12:25:22;96734.72;;;2.55;78.29
14242;BME280;7205;50.864;12.766;2022-12-10T12:27:56;96729.28;;;2.48;77.65
14242;BME280;7205;50.864;12.766;2022-12-10T12:30:26;96734.50;;;2.48;78.30
14242;BME280;7205;50.864;12.766;2022-12-10T12:36:37;96742.44;;;2.47;78.41
14242;BME280;7205;50.864;12.766;2022-12-10T12:39:19;96744.91;;;2.48;78.56
14242;BME280;7205;50.864;12.766;2022-12-10T12:41:59;96738.06;;;2.47;78.92
14242;BME280;7205;50.864;12.766;2022-12-10T12:44:32;96739.03;;;2.46;78.17
14242;BME280;7205;50.864;12.766;2022-12-10T12:47:11;96733.81;;;2.46;78.22
14242;BME280;7205;50.864;12.766;2022-12-10T12:49:48;96744.00;;;2.40;78.08
14242;BME280;7205;50.864;12.766;2022-12-10T12:52:26;96731.97;;;2.39;78.24
14242;BME280;7205;50.864;12.766;2022-12-10T12:55:00;96730.16;;;2.39;78.73
14242;BME280;7205;50.864;12.766;2022-12-10T12:57:35;96733.59;;;2.40;78.53
14242;BME280;7205;50.864;12.766;2022-12-10T13:00:12;96735.34;;;2.39;78.47
14242;BME280;7205;50.864;12.766;2022-12-10T13:02:53;96733.00;;;2.46;78.89
14242;BME280;7205;50.864;12.766;2022-12-10T13:05:26;96745.81;;;2.57;79.31
14242;BME280;7205;50.864;12.766;2022-12-10T13:08:24;96744.31;;;2.72;80.00
14242;BME280;7205;50.864;12.766;2022-12-10T13:10:53;96747.97;;;2.79;79.40
14242;BME280;7205;50.864;12.766;2022-12-10T13:13:28;96747.00;;;2.80;78.80
14242;BME280;7205;50.864;12.766;2022-12-10T13:16:34;96746.56;;;2.85;78.70
14242;BME280;7205;50.864;12.766;2022-12-10T13:19:32;96751.13;;;2.83;78.61
14242;BME280;7205;50.864;12.766;2022-12-10T13:22:07;96752.06;;;2.82;78.21
14242;BME280;7205;50.864;12.766;2022-12-10T13:25:13;96761.00;;;2.79;78.50
14242;BME280;7205;50.864;12.766;2022-12-10T13:27:41;96753.41;;;2.68;77.48
14242;BME280;7205;50.864;12.766;2022-12-10T13:30:32;96746.56;;;2.67;77.18
14242;BME280;7205;50.864;12.766;2022-12-10T13:33:17;96761.81;;;2.62;77.32
14242;BME280;7205;50.864;12.766;2022-12-10T13:36:00;96759.13;;;2.54;76.83
14242;BME280;7205;50.864;12.766;2022-12-10T13:38:39;96764.66;;;2.51;77.14
14242;BME280;7205;50.864;12.766;2022-12-10T13:41:06;96763.59;;;2.44;76.90
14242;BME280;7205;50.864;12.766;2022-12-10T13:43:56;96761.56;;;2.38;77.03